Latest Weather Observations for South Channel Island

IDV60901

Issued at 12:51 am EDT Friday 7 October 2022 (issued every 10 minutes, with the page automatically refreshed every 10 minutes)

About weather observations | Map of Melbourne area stations | Latest observations for Melbourne area | Other Formats
Station Details ID: 086344 Name: SOUTH CHANNEL ISLAND Lat: -38.31 Lon: 144.80 Height: 9.0 m
Data from the previous 72 hours. | See also: Recent months at South Channel Island
Date/Time
EDT
Temp
°C
App
Temp
°C
Dew
Point
°C
Rel
Hum
%
Delta-T
°C
Wind Press
QNH
hPa
Press
MSL
hPa
Rain since
9am
mm
Dir  Spd
km/h
Gust
km/h
Spd
kts
Gust
kts
07/12:30am - - - - - NE 15 17 8 9 - - -
07/12:00am - - - - - N 13 15 7 8 - - -
 
Date/Time
EDT
Temp
°C
App
Temp
°C
Dew
Point
°C
Rel
Hum
%
Delta-T
°C
Wind Press
QNH
hPa
Press
MSL
hPa
Rain since
9am
mm
Dir  Spd
km/h
Gust
km/h
Spd
kts
Gust
kts
06/11:30pm - - - - - N 26 32 14 17 - - -
06/11:00pm - - - - - N 19 24 10 13 - - -
06/10:30pm - - - - - N 28 30 15 16 - - -
06/10:00pm - - - - - NNE 32 35 17 19 - - -
06/09:30pm - - - - - NNE 30 33 16 18 - - -
06/09:00pm - - - - - NE 30 33 16 18 - - -
06/08:30pm - - - - - NE 26 26 14 14 - - -
06/08:00pm - - - - - NNE 19 22 10 12 - - -
06/07:30pm - - - - - NE 22 30 12 16 - - -
06/07:00pm - - - - - NE 20 26 11 14 - - -
06/06:30pm - - - - - NNE 26 28 14 15 - - -
06/06:00pm - - - - - NNE 26 32 14 17 - - -
06/05:30pm - - - - - NNE 30 33 16 18 - - -
06/05:00pm - - - - - NNE 17 20 9 11 - - -
06/04:30pm - - - - - NNE 20 26 11 14 - - -
06/04:00pm - - - - - NNE 22 26 12 14 - - -
06/03:30pm - - - - - NNE 22 28 12 15 - - -
06/03:00pm - - - - - NNE 22 26 12 14 - - -
06/02:30pm - - - - - NE 22 26 12 14 - - -
06/02:00pm - - - - - NE 19 24 10 13 - - -
06/01:30pm - - - - - NNE 24 28 13 15 - - -
06/01:00pm - - - - - NE 26 30 14 16 - - -
06/12:30pm - - - - - ENE 28 30 15 16 - - -
06/12:00pm - - - - - NE 28 30 15 16 - - -
06/11:30am - - - - - ENE 30 33 16 18 - - -
06/11:00am - - - - - ENE 32 35 17 19 - - -
06/10:30am - - - - - ENE 35 39 19 21 - - -
06/10:00am - - - - - ENE 37 41 20 22 - - -
06/09:30am - - - - - ENE 39 44 21 24 - - -
06/09:00am - - - - - ENE 41 48 22 26 - - -
06/08:30am - - - - - ENE 44 50 24 27 - - -
06/08:00am - - - - - ENE 44 52 24 28 - - -
06/07:30am - - - - - ENE 48 56 26 30 - - -
06/07:00am - - - - - ENE 48 56 26 30 - - -
06/06:30am - - - - - ENE 50 57 27 31 - - -
06/06:00am - - - - - ENE 52 59 28 32 - - -
06/05:30am - - - - - ENE 52 63 28 34 - - -
06/05:00am - - - - - ENE 54 63 29 34 - - -
06/04:30am - - - - - ENE 56 65 30 35 - - -
06/04:00am - - - - - ENE 56 69 30 37 - - -
06/03:30am - - - - - ENE 56 67 30 36 - - -
06/03:00am - - - - - ENE 56 65 30 35 - - -
06/02:30am - - - - - E 56 69 30 37 - - -
06/02:00am - - - - - ENE 54 63 29 34 - - -
06/01:30am - - - - - E 52 59 28 32 - - -
06/01:00am - - - - - E 54 65 29 35 - - -
06/12:30am - - - - - E 52 59 28 32 - - -
06/12:00am - - - - - E 50 56 27 30 - - -
 
Date/Time
EDT
Temp
°C
App
Temp
°C
Dew
Point
°C
Rel
Hum
%
Delta-T
°C
Wind Press
QNH
hPa
Press
MSL
hPa
Rain since
9am
mm
Dir  Spd
km/h
Gust
km/h
Spd
kts
Gust
kts
05/11:30pm - - - - - E 48 54 26 29 - - -
05/11:00pm - - - - - ENE 50 61 27 33 - - -
05/10:30pm - - - - - ENE 50 59 27 32 - - -
05/10:00pm - - - - - ENE 52 61 28 33 - - -
05/09:30pm - - - - - ENE 48 57 26 31 - - -
05/09:00pm - - - - - E 52 59 28 32 - - -
05/08:30pm - - - - - E 52 63 28 34 - - -
05/08:00pm - - - - - E 54 63 29 34 - - -
05/07:30pm - - - - - E 56 74 30 40 - - -
05/07:00pm - - - - - E 57 65 31 35 - - -
05/06:30pm - - - - - E 59 72 32 39 - - -
05/06:00pm - - - - - E 57 72 31 39 - - -
05/05:30pm - - - - - E 56 69 30 37 - - -
05/05:00pm - - - - - E 57 67 31 36 - - -
05/04:30pm - - - - - E 59 70 32 38 - - -
05/04:00pm - - - - - E 59 69 32 37 - - -
05/03:30pm - - - - - E 57 74 31 40 - - -
05/03:00pm - - - - - E 56 63 30 34 - - -
05/02:30pm - - - - - E 57 69 31 37 - - -
05/02:00pm - - - - - E 57 70 31 38 - - -
05/01:30pm - - - - - ENE 59 72 32 39 - - -
05/01:00pm - - - - - ENE 63 76 34 41 - - -
05/12:30pm - - - - - ENE 65 78 35 42 - - -
05/12:03pm - - - - - E 70 89 38 48 - - -
05/12:00pm - - - - - E 69 80 37 43 - - -
05/11:30am - - - - - E 67 85 36 46 - - -
05/11:15am - - - - - ENE 67 85 36 46 - - -
05/11:00am - - - - - E 72 85 39 46 - - -
05/10:30am - - - - - E 70 87 38 47 - - -
05/10:00am - - - - - E 72 85 39 46 - - -
05/09:30am - - - - - E 70 83 38 45 - - -
05/09:05am - - - - - E 70 91 38 49 - - -
05/09:00am - - - - - E 69 83 37 45 - - -
05/08:30am - - - - - E 70 85 38 46 - - -
05/08:11am - - - - - E 67 91 36 49 - - -
05/08:00am - - - - - E 67 82 36 44 - - -
05/07:35am - - - - - E 67 87 36 47 - - -
05/07:30am - - - - - E 67 83 36 45 - - -
05/07:02am - - - - - E 65 83 35 45 - - -
05/07:00am - - - - - E 65 82 35 44 - - -
05/06:30am - - - - - E 59 80 32 43 - - -
05/06:06am - - - - - E 59 78 32 42 - - -
05/06:00am - - - - - E 59 76 32 41 - - -
05/05:57am - - - - - E 59 78 32 42 - - -
05/05:30am - - - - - E 57 72 31 39 - - -
05/05:18am - - - - - E 59 78 32 42 - - -
05/05:00am - - - - - E 57 72 31 39 - - -
05/04:30am - - - - - E 56 70 30 38 - - -
05/04:00am - - - - - E 57 70 31 38 - - -
05/03:30am - - - - - E 59 72 32 39 - - -
05/03:23am - - - - - E 59 78 32 42 - - -
05/03:00am - - - - - E 63 78 34 42 - - -
05/02:30am - - - - - E 57 72 31 39 - - -
05/02:00am - - - - - E 59 70 32 38 - - -
05/01:30am - - - - - E 63 76 34 41 - - -
05/01:00am - - - - - E 56 67 30 36 - - -
05/12:30am - - - - - E 44 57 24 31 - - -
05/12:00am - - - - - E 43 54 23 29 - - -
 
Date/Time
EDT
Temp
°C
App
Temp
°C
Dew
Point
°C
Rel
Hum
%
Delta-T
°C
Wind Press
QNH
hPa
Press
MSL
hPa
Rain since
9am
mm
Dir  Spd
km/h
Gust
km/h
Spd
kts
Gust
kts
04/11:30pm - - - - - E 44 54 24 29 - - -
04/11:00pm - - - - - E 39 48 21 26 - - -
04/10:30pm - - - - - E 41 48 22 26 - - -
04/10:00pm - - - - - E 46 54 25 29 - - -
04/09:30pm - - - - - E 41 54 22 29 - - -
04/09:27pm - - - - - E 35 54 19 29 - - -
04/09:00pm - - - - - E 35 41 19 22 - - -
04/08:30pm - - - - - ESE 28 37 15 20 - - -
04/08:00pm - - - - - ESE 24 28 13 15 - - -
04/07:30pm - - - - - SE 28 32 15 17 - - -
04/07:00pm - - - - - ESE 26 32 14 17 - - -
04/06:30pm - - - - - ESE 28 33 15 18 - - -
04/06:00pm - - - - - ESE 26 32 14 17 - - -
04/05:30pm - - - - - SE 24 30 13 16 - - -
04/05:00pm - - - - - SE 20 26 11 14 - - -
04/04:30pm - - - - - SE 19 24 10 13 - - -
04/04:00pm - - - - - S 20 26 11 14 - - -
04/03:30pm - - - - - SSE 26 30 14 16 - - -
04/03:00pm - - - - - S 26 30 14 16 - - -
04/02:30pm - - - - - SSE 28 32 15 17 - - -
04/02:00pm - - - - - S 28 33 15 18 - - -
04/01:30pm - - - - - SSE 32 35 17 19 - - -
04/01:00pm - - - - - SSE 30 33 16 18 - - -
04/12:30pm - - - - - SE 28 32 15 17 - - -
04/12:00pm - - - - - SSE 28 32 15 17 - - -
04/11:30am - - - - - SE 28 32 15 17 - - -
04/11:00am - - - - - SE 26 30 14 16 - - -
04/10:30am - - - - - SE 24 26 13 14 - - -
04/10:00am - - - - - SE 28 30 15 16 - - -
04/09:30am - - - - - SE 20 24 11 13 - - -
04/09:00am - - - - - SE 22 26 12 14 - - -
04/08:30am - - - - - SE 24 28 13 15 - - -
04/08:00am - - - - - SE 20 26 11 14 - - -
04/07:30am - - - - - SE 19 20 10 11 - - -
04/07:00am - - - - - SSE 17 20 9 11 - - -
04/06:30am - - - - - SE 17 19 9 10 - - -
04/06:00am - - - - - SE 17 19 9 10 - - -
04/05:30am - - - - - SE 20 24 11 13 - - -
04/05:00am - - - - - SSE 19 22 10 12 - - -
04/04:30am - - - - - SE 15 17 8 9 - - -
04/04:00am - - - - - SE 15 17 8 9 - - -
04/03:30am - - - - - SE 9 11 5 6 - - -
04/03:00am - - - - - SE 13 15 7 8 - - -
04/02:30am - - - - - SSE 13 15 7 8 - - -
04/02:00am - - - - - S 15 17 8 9 - - -
04/01:30am - - - - - S 11 15 6 8 - - -
04/01:00am - - - - - SSE 11 13 6 7 - - -

Latest Capital City Observations: Canberra | Sydney | Melbourne | Brisbane | Adelaide | Perth | Hobart | Darwin

Other formats

Comma delimited format used in spreadsheet applications
http://www.bom.gov.au/fwo/IDV60901/IDV60901.94853.axf

JavaScript Object Notation format (JSON) in row-major order
http://www.bom.gov.au/fwo/IDV60901/IDV60901.94853.json

Data quality

Most of these data are generated automatically and are frequently updated. Quality checks on data are not normally performed. It is possible for incorrect values to appear. Refer to information at About Latest Weather Observations and please check the disclaimer before using these data.